Time;durP1;ratioP1;P1;durP2;ratioP2;P2;SDS_P1;SDS_P2;PMS_P1;PMS_P2;Temp;Humidity;BMP_temperature;BMP_pressure;BME280_temperature;BME280_humidity;BME280_pressure;Samples;Min_cycle;Max_cycle;Signal;HPM_P1;HPM_P2
2022/01/13 00:01:44;;;;;;;0.10;0.10;;;4.10;99.90;;;;;;4984381;28;20690;-72
2022/01/13 00:04:13;;;;;;;0.10;0.10;;;4.10;99.90;;;;;;4983064;28;20608;-71
2022/01/13 00:06:40;;;;;;;0.10;0.10;;;4.10;99.90;;;;;;4978106;28;20704;-72
2022/01/13 00:09:08;;;;;;;0.10;0.10;;;4.10;99.90;;;;;;4982515;28;20679;-72
2022/01/13 00:11:35;;;;;;;0.10;0.10;;;4.10;99.90;;;;;;4980505;28;20720;-71
2022/01/13 00:17:07;;;;;;;0.10;0.10;;;4.10;99.90;;;;;;4983706;28;21257;-73
2022/01/13 00:19:45;;;;;;;0.13;0.13;;;4.10;99.90;;;;;;4983744;28;20629;-72
2022/01/13 00:22:19;;;;;;;0.20;0.20;;;4.10;99.90;;;;;;4985394;28;20631;-71
2022/01/13 00:24:49;;;;;;;0.10;0.10;;;4.10;99.90;;;;;;4982779;28;20687;-72
2022/01/13 00:27:17;;;;;;;0.10;0.10;;;4.10;99.90;;;;;;4986216;28;21207;-72
2022/01/13 00:29:45;;;;;;;0.10;0.10;;;4.20;99.90;;;;;;4980210;28;20645;-72
2022/01/13 00:32:15;;;;;;;0.10;0.10;;;4.20;99.90;;;;;;4985947;28;20686;-71
2022/01/13 00:34:44;;;;;;;0.10;0.10;;;4.20;99.90;;;;;;4982561;28;20629;-72
2022/01/13 00:37:11;;;;;;;0.10;0.10;;;4.20;99.90;;;;;;4985417;28;20656;-74
2022/01/13 00:39:38;;;;;;;0.10;0.10;;;4.20;99.90;;;;;;4983486;28;20977;-72
2022/01/13 00:42:05;;;;;;;0.10;0.10;;;4.20;99.90;;;;;;4987706;28;20608;-74
2022/01/13 00:44:36;;;;;;;0.10;0.10;;;4.20;99.90;;;;;;4983288;28;20617;-74
2022/01/13 00:47:07;;;;;;;0.10;0.10;;;4.20;99.90;;;;;;4987525;28;20699;-74
2022/01/13 00:49:35;;;;;;;0.10;0.10;;;4.30;99.90;;;;;;4986128;28;20652;-74
2022/01/13 00:52:03;;;;;;;0.10;0.10;;;4.30;99.90;;;;;;4995159;28;20715;-74
2022/01/13 00:54:32;;;;;;;0.10;0.10;;;4.30;99.90;;;;;;4986075;28;20624;-73
2022/01/13 00:56:59;;;;;;;0.10;0.10;;;4.30;99.90;;;;;;4985783;28;20655;-74
2022/01/13 00:59:26;;;;;;;0.10;0.10;;;4.30;99.90;;;;;;4983612;28;20647;-72
2022/01/13 01:01:54;;;;;;;0.10;0.10;;;4.30;99.90;;;;;;4981984;28;20657;-73
2022/01/13 01:04:21;;;;;;;0.10;0.10;;;4.30;99.90;;;;;;4983029;28;20628;-73
2022/01/13 01:06:50;;;;;;;0.10;0.10;;;4.30;99.90;;;;;;4984366;28;20668;-71
2022/01/13 01:09:23;;;;;;;0.10;0.10;;;4.30;99.90;;;;;;4983493;28;20609;-73
2022/01/13 01:11:52;;;;;;;0.10;0.10;;;4.30;99.90;;;;;;4986215;28;20615;-73
2022/01/13 01:14:19;;;;;;;0.20;0.20;;;4.30;99.90;;;;;;4986303;28;20675;-73
2022/01/13 01:16:46;;;;;;;0.10;0.10;;;4.30;99.90;;;;;;4988034;28;20743;-74
2022/01/13 01:19:14;;;;;;;0.10;0.10;;;4.30;99.90;;;;;;4987868;28;20636;-72
2022/01/13 01:27:17;;;;;;;0.10;0.10;;;4.20;99.90;;;;;;4987406;28;20747;-74
2022/01/13 01:29:52;;;;;;;0.10;0.10;;;4.20;99.90;;;;;;4990277;28;20635;-73
2022/01/13 01:32:19;;;;;;;0.10;0.10;;;4.20;99.90;;;;;;4985720;28;20620;-74
2022/01/13 01:34:54;;;;;;;0.10;0.10;;;4.20;99.90;;;;;;4986993;28;20636;-73
2022/01/13 01:37:24;;;;;;;0.10;0.10;;;4.20;99.90;;;;;;4985894;28;20648;-72
2022/01/13 01:39:53;;;;;;;0.10;0.10;;;4.10;99.90;;;;;;4989713;28;20620;-73
2022/01/13 01:42:22;;;;;;;0.10;0.10;;;4.10;99.90;;;;;;4987148;28;20620;-73
2022/01/13 01:44:52;;;;;;;0.10;0.10;;;4.10;99.90;;;;;;4988464;28;20636;-73
2022/01/13 01:47:21;;;;;;;0.17;0.17;;;4.10;99.90;;;;;;4989391;28;20675;-74
2022/01/13 01:49:56;;;;;;;0.10;0.10;;;4.10;99.90;;;;;;4989011;28;21223;-74
2022/01/13 01:52:23;;;;;;;0.10;0.10;;;4.10;99.90;;;;;;4981971;28;20615;-73
2022/01/13 01:54:52;;;;;;;0.10;0.10;;;4.10;99.90;;;;;;4987639;28;21217;-74
2022/01/13 01:57:21;;;;;;;0.13;0.13;;;4.10;99.90;;;;;;4988149;28;20663;-73
2022/01/13 01:59:48;;;;;;;0.10;0.10;;;4.10;99.90;;;;;;4997068;28;20633;-73
2022/01/13 02:02:15;;;;;;;0.10;0.10;;;4.00;99.90;;;;;;4988178;28;20628;-74
2022/01/13 02:04:43;;;;;;;0.10;0.10;;;4.00;99.90;;;;;;4987254;28;20612;-74
2022/01/13 02:07:12;;;;;;;0.10;0.10;;;4.00;99.90;;;;;;4989202;28;20781;-74
2022/01/13 02:09:42;;;;;;;0.10;0.10;;;4.10;99.90;;;;;;4988648;28;20715;-74
2022/01/13 02:12:19;;;;;;;0.10;0.10;;;4.10;99.90;;;;;;4989365;28;20738;-74
2022/01/13 02:14:57;;;;;;;0.10;0.10;;;4.10;99.90;;;;;;4987206;28;20990;-73
2022/01/13 02:17:27;;;;;;;0.10;0.10;;;4.10;99.90;;;;;;4984122;28;20754;-74
2022/01/13 02:19:57;;;;;;;0.10;0.10;;;4.10;99.90;;;;;;4986387;28;20635;-73
2022/01/13 02:22:26;;;;;;;0.10;0.10;;;4.10;99.90;;;;;;4991164;28;20616;-74
2022/01/13 02:24:54;;;;;;;0.10;0.10;;;4.10;99.90;;;;;;4987884;28;20668;-73
2022/01/13 02:27:21;;;;;;;0.13;0.13;;;4.00;99.90;;;;;;4984226;28;20682;-73
2022/01/13 02:29:49;;;;;;;0.10;0.10;;;4.00;99.90;;;;;;4987531;28;20636;-74
2022/01/13 02:32:16;;;;;;;0.10;0.10;;;4.00;99.90;;;;;;4988384;28;20632;-74
2022/01/13 02:34:43;;;;;;;0.10;0.10;;;4.00;99.90;;;;;;4988981;28;20640;-74
2022/01/13 02:37:10;;;;;;;0.13;0.13;;;4.00;99.90;;;;;;4988577;28;20648;-74
2022/01/13 02:39:41;;;;;;;0.10;0.10;;;4.00;99.90;;;;;;4987123;28;20664;-72
2022/01/13 02:42:12;;;;;;;0.10;0.10;;;4.00;99.90;;;;;;4989811;28;20619;-73
2022/01/13 02:44:48;;;;;;;0.10;0.10;;;4.00;99.90;;;;;;4987507;28;20624;-74
2022/01/13 02:47:34;;;;;;;0.10;0.10;;;4.00;99.90;;;;;;4989465;28;20675;-73
2022/01/13 02:50:02;;;;;;;0.10;0.10;;;4.00;99.90;;;;;;4987494;28;20632;-73
2022/01/13 02:52:28;;;;;;;0.10;0.10;;;4.00;99.90;;;;;;4989677;28;20719;-74
2022/01/13 02:54:57;;;;;;;0.10;0.10;;;4.00;99.90;;;;;;4987280;28;20641;-74
2022/01/13 02:57:24;;;;;;;0.10;0.10;;;4.00;99.90;;;;;;4983470;28;20714;-74
2022/01/13 02:59:51;;;;;;;0.10;0.10;;;4.00;99.90;;;;;;5000510;28;20633;-73
2022/01/13 03:02:17;;;;;;;0.10;0.10;;;4.00;99.90;;;;;;4987414;28;20624;-73
2022/01/13 03:04:48;;;;;;;0.10;0.10;;;3.90;99.90;;;;;;4988405;28;20655;-74
2022/01/13 03:07:15;;;;;;;0.10;0.10;;;4.00;99.90;;;;;;4989566;28;20675;-74
2022/01/13 03:09:43;;;;;;;0.10;0.10;;;4.00;99.90;;;;;;4985026;28;20605;-74
2022/01/13 03:12:11;;;;;;;0.10;0.10;;;4.00;99.90;;;;;;4989540;28;20612;-73
2022/01/13 03:14:38;;;;;;;0.10;0.10;;;3.90;99.90;;;;;;4987864;28;20608;-74
2022/01/13 03:17:05;;;;;;;0.10;0.10;;;4.00;99.90;;;;;;5010454;23;20775;-65
2022/01/13 03:19:33;;;;;;;0.10;0.10;;;4.00;99.90;;;;;;4988790;28;20613;-65
2022/01/13 03:22:00;;;;;;;0.10;0.10;;;4.00;99.90;;;;;;4986340;28;20628;-65
2022/01/13 03:24:29;;;;;;;0.10;0.10;;;3.90;99.90;;;;;;4987739;28;20655;-64
2022/01/13 03:26:57;;;;;;;0.10;0.10;;;3.90;99.90;;;;;;4985890;28;20662;-66
2022/01/13 03:29:26;;;;;;;0.20;0.20;;;3.90;99.90;;;;;;4981154;28;20629;-66
2022/01/13 03:31:53;;;;;;;0.10;0.10;;;3.90;99.90;;;;;;4986362;28;20612;-66
2022/01/13 03:34:19;;;;;;;0.10;0.10;;;3.90;99.90;;;;;;4982624;28;20739;-66
2022/01/13 03:36:47;;;;;;;0.10;0.10;;;3.90;99.90;;;;;;4988422;28;20619;-66
2022/01/13 03:39:14;;;;;;;0.10;0.10;;;3.90;99.90;;;;;;4988029;28;20612;-66
2022/01/13 03:41:41;;;;;;;0.10;0.10;;;3.90;99.90;;;;;;4984222;28;21244;-67
2022/01/13 03:44:17;;;;;;;0.10;0.10;;;3.90;99.90;;;;;;4988515;28;20729;-66
2022/01/13 03:46:46;;;;;;;0.20;0.20;;;3.90;99.90;;;;;;4984958;28;21275;-66
2022/01/13 03:49:13;;;;;;;0.10;0.10;;;3.90;99.90;;;;;;4987776;28;20624;-66
2022/01/13 03:52:27;;;;;;;0.10;0.10;;;3.90;99.90;;;;;;4981761;28;20676;-66
2022/01/13 03:55:34;;;;;;;0.10;0.10;;;3.90;99.90;;;;;;4985008;28;20658;-66
2022/01/13 03:58:38;;;;;;;0.10;0.10;;;3.90;99.90;;;;;;4985438;28;20634;-66
2022/01/13 04:01:46;;;;;;;0.10;0.10;;;4.00;99.90;;;;;;5000789;28;20638;-65
2022/01/13 04:04:14;;;;;;;0.10;0.10;;;4.00;99.90;;;;;;4955440;28;20635;-66
2022/01/13 04:06:43;;;;;;;0.10;0.10;;;4.00;99.90;;;;;;4987256;28;20648;-66
2022/01/13 04:09:35;;;;;;;0.10;0.10;;;4.00;99.90;;;;;;4980043;28;20631;-65
2022/01/13 04:12:05;;;;;;;0.10;0.10;;;4.00;99.90;;;;;;4984553;28;20694;-66
2022/01/13 04:14:42;;;;;;;0.10;0.10;;;4.00;99.90;;;;;;4981730;28;20644;-66
2022/01/13 04:17:10;;;;;;;0.10;0.10;;;3.90;99.90;;;;;;4984970;28;20718;-66
2022/01/13 04:19:38;;;;;;;0.13;0.13;;;4.00;99.90;;;;;;4985283;28;20629;-66
2022/01/13 04:22:06;;;;;;;0.10;0.10;;;3.90;99.90;;;;;;4986520;28;20699;-66
2022/01/13 04:24:33;;;;;;;0.10;0.10;;;3.90;99.90;;;;;;4984882;28;20734;-67
2022/01/13 04:27:00;;;;;;;0.10;0.10;;;3.90;99.90;;;;;;4983399;28;20697;-66
2022/01/13 04:29:33;;;;;;;0.10;0.10;;;3.90;99.90;;;;;;4984284;28;20636;-66
2022/01/13 04:32:00;;;;;;;0.10;0.10;;;3.90;99.90;;;;;;4985060;28;20666;-66
2022/01/13 04:34:27;;;;;;;0.10;0.10;;;3.90;99.90;;;;;;4985790;28;20735;-66
2022/01/13 04:36:56;;;;;;;0.10;0.10;;;3.90;99.90;;;;;;4985172;28;20689;-66
2022/01/13 04:39:23;;;;;;;0.10;0.10;;;3.90;99.90;;;;;;4984096;28;20634;-66
2022/01/13 04:41:52;;;;;;;0.10;0.10;;;3.90;99.90;;;;;;4988157;28;20674;-66
2022/01/13 04:44:20;;;;;;;0.10;0.10;;;3.90;99.90;;;;;;4983403;28;20651;-67
2022/01/13 04:46:48;;;;;;;0.10;0.10;;;3.90;99.90;;;;;;4981728;28;20676;-66
2022/01/13 04:49:18;;;;;;;0.10;0.10;;;3.90;99.90;;;;;;4987041;28;20672;-66
2022/01/13 04:51:46;;;;;;;0.10;0.10;;;3.90;99.90;;;;;;4988159;28;20620;-66
2022/01/13 04:54:15;;;;;;;0.20;0.20;;;3.80;99.90;;;;;;4987478;28;20762;-66
2022/01/13 04:56:45;;;;;;;0.10;0.10;;;3.80;99.90;;;;;;4986156;28;20736;-65
2022/01/13 04:59:12;;;;;;;0.10;0.10;;;3.80;99.90;;;;;;4989780;28;20620;-65
2022/01/13 05:01:40;;;;;;;0.10;0.10;;;3.80;99.90;;;;;;4982693;28;20753;-66
2022/01/13 05:04:07;;;;;;;0.10;0.10;;;3.80;99.90;;;;;;4994193;28;20653;-67
2022/01/13 05:06:35;;;;;;;0.10;0.10;;;3.80;99.90;;;;;;4987391;28;20653;-66
2022/01/13 05:09:02;;;;;;;0.10;0.10;;;3.80;99.90;;;;;;4986306;28;20658;-70
2022/01/13 05:11:30;;;;;;;0.20;0.20;;;3.80;99.90;;;;;;4979723;28;20678;-66
2022/01/13 05:13:57;;;;;;;0.10;0.10;;;3.80;99.90;;;;;;4985090;28;20663;-66
2022/01/13 05:16:29;;;;;;;0.10;0.10;;;3.80;99.90;;;;;;4979519;28;20621;-67
2022/01/13 05:19:10;;;;;;;0.10;0.10;;;3.80;99.90;;;;;;4980941;28;20636;-67
2022/01/13 05:21:55;;;;;;;0.17;0.17;;;3.80;99.90;;;;;;4982305;28;20623;-67
2022/01/13 05:24:22;;;;;;;0.10;0.10;;;3.80;99.90;;;;;;4981264;28;20648;-67
2022/01/13 05:26:50;;;;;;;0.10;0.10;;;3.80;99.90;;;;;;4977824;28;20671;-67
2022/01/13 05:29:19;;;;;;;0.10;0.10;;;3.80;99.90;;;;;;4975753;28;20628;-67
2022/01/13 05:31:47;;;;;;;0.10;0.10;;;3.80;99.90;;;;;;4981310;28;20636;-67
2022/01/13 05:34:14;;;;;;;0.10;0.10;;;3.80;99.90;;;;;;4982896;28;20714;-68
2022/01/13 05:36:41;;;;;;;0.10;0.10;;;3.80;99.90;;;;;;4976167;28;20637;-67
2022/01/13 05:39:08;;;;;;;0.10;0.10;;;3.80;99.90;;;;;;4980661;28;20695;-67
2022/01/13 05:41:35;;;;;;;0.10;0.10;;;3.80;99.90;;;;;;4982880;28;20629;-68
2022/01/13 05:44:03;;;;;;;0.10;0.10;;;3.90;99.90;;;;;;4983633;28;20785;-68
2022/01/13 05:46:31;;;;;;;0.10;0.10;;;3.90;99.90;;;;;;4971490;28;20625;-69
2022/01/13 05:48:57;;;;;;;0.10;0.10;;;3.90;99.90;;;;;;4977628;28;20611;-67
2022/01/13 05:51:24;;;;;;;0.10;0.10;;;3.90;99.90;;;;;;4977048;28;20629;-68
2022/01/13 05:53:51;;;;;;;0.10;0.10;;;3.90;99.90;;;;;;4993554;28;20683;-69
2022/01/13 05:56:18;;;;;;;0.10;0.10;;;3.90;99.90;;;;;;4980506;28;20624;-67
2022/01/13 05:58:45;;;;;;;0.10;0.10;;;3.90;99.90;;;;;;4984728;28;20647;-70
2022/01/13 06:01:14;;;;;;;0.17;0.17;;;3.90;99.90;;;;;;4972869;28;20698;-66
2022/01/13 06:03:41;;;;;;;0.10;0.10;;;3.90;99.90;;;;;;4978606;28;20664;-66
2022/01/13 06:06:08;;;;;;;0.10;0.10;;;3.90;99.90;;;;;;4981619;28;20623;-67
2022/01/13 06:08:36;;;;;;;0.10;0.10;;;3.90;99.90;;;;;;4982737;28;20652;-66
2022/01/13 06:11:02;;;;;;;0.20;0.20;;;4.00;99.90;;;;;;4974910;28;20632;-66
2022/01/13 06:13:29;;;;;;;0.10;0.10;;;4.00;99.90;;;;;;4979139;28;20660;-66
2022/01/13 06:15:56;;;;;;;0.10;0.10;;;4.00;99.90;;;;;;4975774;28;21051;-66
2022/01/13 06:18:25;;;;;;;0.10;0.10;;;4.00;99.90;;;;;;4980483;28;20637;-67
2022/01/13 06:20:52;;;;;;;0.10;0.10;;;4.00;99.90;;;;;;4980764;28;20831;-66
2022/01/13 06:23:19;;;;;;;0.10;0.10;;;4.00;99.90;;;;;;4978872;28;20654;-66
2022/01/13 06:25:46;;;;;;;0.10;0.10;;;4.00;99.90;;;;;;4977602;28;20634;-66
2022/01/13 06:28:13;;;;;;;0.10;0.10;;;3.90;99.90;;;;;;4977539;28;20664;-66
2022/01/13 06:30:40;;;;;;;0.10;0.10;;;3.90;99.90;;;;;;4973341;28;20723;-67
2022/01/13 06:33:07;;;;;;;0.10;0.10;;;3.90;99.90;;;;;;4982682;28;20666;-66
2022/01/13 06:35:36;;;;;;;0.10;0.10;;;3.90;99.90;;;;;;4973642;28;20641;-67
2022/01/13 06:38:02;;;;;;;0.10;0.10;;;3.90;99.90;;;;;;4983304;28;20635;-67
2022/01/13 06:40:29;;;;;;;0.10;0.10;;;3.90;99.90;;;;;;4982940;28;20652;-66
2022/01/13 06:42:56;;;;;;;0.13;0.13;;;3.90;99.90;;;;;;4979129;28;21044;-67
2022/01/13 06:45:23;;;;;;;0.10;0.10;;;3.90;99.90;;;;;;4988561;28;20626;-66
2022/01/13 06:47:50;;;;;;;0.10;0.10;;;3.90;99.90;;;;;;4986212;28;20747;-67
2022/01/13 06:50:17;;;;;;;0.10;0.10;;;3.90;99.90;;;;;;4980257;28;20620;-67
2022/01/13 06:52:47;;;;;;;0.10;0.10;;;3.80;99.90;;;;;;4981077;28;20633;-67
2022/01/13 06:55:15;;;;;;;0.10;0.10;;;3.80;99.90;;;;;;4979671;28;20700;-67
2022/01/13 06:57:42;;;;;;;0.10;0.10;;;3.90;99.90;;;;;;4978522;28;20629;-67
2022/01/13 07:00:10;;;;;;;0.10;0.10;;;3.80;99.90;;;;;;4980609;28;20698;-66
2022/01/13 07:02:37;;;;;;;0.10;0.10;;;3.90;99.90;;;;;;4983614;28;20711;-66
2022/01/13 07:05:05;;;;;;;0.10;0.10;;;3.90;99.90;;;;;;4984408;28;20685;-67
2022/01/13 07:07:35;;;;;;;0.10;0.10;;;3.90;99.90;;;;;;4982088;28;20720;-66
2022/01/13 07:10:04;;;;;;;0.10;0.10;;;3.90;99.90;;;;;;4982391;28;20658;-66
2022/01/13 07:12:31;;;;;;;0.10;0.10;;;3.90;99.90;;;;;;4982439;28;20663;-67
2022/01/13 07:14:58;;;;;;;0.10;0.10;;;3.90;99.90;;;;;;4983093;28;20659;-67
2022/01/13 07:17:25;;;;;;;0.10;0.10;;;3.90;99.90;;;;;;4978798;28;20641;-67
2022/01/13 07:19:52;;;;;;;0.10;0.10;;;3.90;99.90;;;;;;4983353;28;20648;-68
2022/01/13 07:22:19;;;;;;;0.10;0.10;;;3.90;99.90;;;;;;4987126;28;20637;-67
2022/01/13 07:24:47;;;;;;;0.17;0.17;;;3.90;99.90;;;;;;4983768;28;20660;-66
2022/01/13 07:27:15;;;;;;;0.10;0.10;;;3.90;99.90;;;;;;4978558;28;21022;-67
2022/01/13 07:29:43;;;;;;;0.10;0.10;;;3.90;99.90;;;;;;4978757;28;20633;-67
2022/01/13 07:32:10;;;;;;;0.10;0.10;;;3.90;99.90;;;;;;4986571;28;20603;-67
2022/01/13 07:34:38;;;;;;;0.10;0.10;;;3.90;99.90;;;;;;4974096;28;20657;-67
2022/01/13 07:37:05;;;;;;;0.10;0.10;;;3.90;99.90;;;;;;4980920;28;20631;-66
2022/01/13 07:39:32;;;;;;;0.10;0.10;;;3.90;99.90;;;;;;4985162;28;20623;-67
2022/01/13 07:41:59;;;;;;;0.10;0.10;;;3.90;99.90;;;;;;4984434;28;20666;-67
2022/01/13 07:44:30;;;;;;;0.10;0.10;;;3.90;99.90;;;;;;4982604;28;20675;-67
2022/01/13 07:46:58;;;;;;;0.10;0.10;;;3.90;99.90;;;;;;4983985;28;20631;-67
2022/01/13 07:49:25;;;;;;;0.13;0.13;;;3.90;99.90;;;;;;4981613;28;20760;-67
2022/01/13 07:51:52;;;;;;;0.10;0.10;;;4.00;99.90;;;;;;4983218;28;20628;-66
2022/01/13 07:54:19;;;;;;;0.10;0.10;;;4.00;99.90;;;;;;4970417;28;20673;-66
2022/01/13 07:56:46;;;;;;;0.10;0.10;;;4.00;99.90;;;;;;4975837;28;20626;-67
2022/01/13 07:59:13;;;;;;;0.10;0.10;;;4.00;99.90;;;;;;4979200;28;20624;-67
2022/01/13 08:01:42;;;;;;;0.20;0.20;;;4.10;99.90;;;;;;4982055;28;20647;-66
2022/01/13 08:04:09;;;;;;;0.10;0.10;;;4.10;99.90;;;;;;4978275;28;20746;-66
2022/01/13 08:06:36;;;;;;;0.10;0.10;;;4.10;99.90;;;;;;4981027;28;20637;-67
2022/01/13 08:09:03;;;;;;;0.10;0.10;;;4.10;99.90;;;;;;4978851;28;20741;-68
2022/01/13 08:11:30;;;;;;;0.10;0.10;;;4.10;99.90;;;;;;4982693;28;20659;-67
2022/01/13 08:13:57;;;;;;;0.10;0.10;;;4.10;99.90;;;;;;4979019;28;20665;-67
2022/01/13 08:16:32;;;;;;;0.10;0.10;;;4.10;99.90;;;;;;4976596;28;20628;-66
2022/01/13 08:21:45;;;;;;;0.10;0.10;;;4.10;99.90;;;;;;4984776;28;20639;-67
2022/01/13 08:24:12;;;;;;;0.10;0.10;;;4.20;99.90;;;;;;4983806;28;20669;-67
2022/01/13 08:26:39;;;;;;;0.10;0.10;;;4.20;99.90;;;;;;4976122;28;20683;-67
2022/01/13 08:29:06;;;;;;;0.10;0.10;;;4.20;99.90;;;;;;4983369;28;20772;-67
2022/01/13 08:31:33;;;;;;;0.10;0.10;;;4.20;99.90;;;;;;4984931;28;20616;-67
2022/01/13 08:34:01;;;;;;;0.10;0.10;;;4.20;99.90;;;;;;4983241;28;20668;-67
2022/01/13 08:36:28;;;;;;;0.10;0.10;;;4.30;99.90;;;;;;4979492;28;20632;-68
2022/01/13 08:38:56;;;;;;;0.10;0.10;;;4.30;99.90;;;;;;4989756;28;20739;-67
2022/01/13 08:41:23;;;;;;;0.13;0.13;;;4.30;99.90;;;;;;4978942;28;20633;-68
2022/01/13 08:43:51;;;;;;;0.10;0.10;;;4.30;99.90;;;;;;4983558;28;20673;-67
2022/01/13 08:46:18;;;;;;;0.10;0.10;;;4.30;99.90;;;;;;4988227;28;20711;-68
2022/01/13 08:48:45;;;;;;;0.10;0.10;;;4.30;99.90;;;;;;4985262;28;20683;-66
2022/01/13 08:51:17;;;;;;;0.10;0.10;;;4.40;99.90;;;;;;4986050;28;20622;-68
2022/01/13 08:53:44;;;;;;;0.07;0.07;;;4.40;99.90;;;;;;4979008;28;20667;-67
2022/01/13 08:56:11;;;;;;;0.10;0.10;;;4.40;99.90;;;;;;4988332;28;20639;-67
2022/01/13 08:58:38;;;;;;;0.10;0.10;;;4.50;99.90;;;;;;4980028;28;20628;-66
2022/01/13 09:01:07;;;;;;;0.10;0.10;;;4.50;99.90;;;;;;4980709;28;20662;-68
2022/01/13 09:03:34;;;;;;;0.10;0.10;;;4.50;99.90;;;;;;4985354;28;20647;-68
2022/01/13 09:06:01;;;;;;;0.10;0.10;;;4.50;99.90;;;;;;4988817;28;20638;-68
2022/01/13 09:08:29;;;;;;;0.10;0.10;;;4.50;99.90;;;;;;4987491;28;20746;-67
2022/01/13 09:10:56;;;;;;;0.10;0.10;;;4.50;99.90;;;;;;4986195;28;20615;-68
2022/01/13 09:13:25;;;;;;;0.10;0.10;;;4.50;99.90;;;;;;4978882;28;20676;-67
2022/01/13 09:15:58;;;;;;;0.10;0.10;;;4.50;99.90;;;;;;4983924;28;20731;-68
2022/01/13 09:18:33;;;;;;;0.10;0.10;;;4.50;99.90;;;;;;4986975;28;20640;-67
2022/01/13 09:21:01;;;;;;;0.10;0.10;;;4.60;99.90;;;;;;4986330;28;20623;-66
2022/01/13 09:23:31;;;;;;;0.10;0.10;;;4.60;99.90;;;;;;4986870;28;20734;-68
2022/01/13 09:25:58;;;;;;;0.10;0.10;;;4.60;99.90;;;;;;4987699;28;21068;-67
2022/01/13 09:28:25;;;;;;;0.10;0.10;;;4.70;99.90;;;;;;4979910;28;20663;-67
2022/01/13 09:30:52;;;;;;;0.10;0.10;;;4.70;99.90;;;;;;4983263;28;20625;-68
2022/01/13 09:33:21;;;;;;;0.20;0.20;;;4.70;99.90;;;;;;4982510;28;21045;-68
2022/01/13 09:35:48;;;;;;;0.10;0.10;;;4.70;99.90;;;;;;4981779;28;20714;-68
2022/01/13 09:38:15;;;;;;;0.10;0.10;;;4.80;99.90;;;;;;4981026;28;20674;-68
2022/01/13 09:40:46;;;;;;;0.10;0.10;;;4.80;99.90;;;;;;4987624;28;20658;-67
2022/01/13 09:43:14;;;;;;;0.10;0.10;;;4.80;99.90;;;;;;4985475;28;20643;-68
2022/01/13 09:45:42;;;;;;;0.10;0.10;;;4.80;99.90;;;;;;4981090;28;21169;-67
2022/01/13 09:48:09;;;;;;;0.10;0.10;;;4.80;99.90;;;;;;4985077;28;20732;-67
2022/01/13 09:50:36;;;;;;;0.10;0.10;;;4.90;99.90;;;;;;4984143;28;20617;-68
2022/01/13 09:53:03;;;;;;;0.10;0.10;;;4.90;99.90;;;;;;4978778;28;20657;-68
2022/01/13 09:55:30;;;;;;;0.10;0.10;;;4.90;99.90;;;;;;4985128;28;20624;-68
2022/01/13 09:58:02;;;;;;;0.10;0.10;;;4.90;99.90;;;;;;4983835;28;20704;-68
2022/01/13 10:00:29;;;;;;;0.10;0.10;;;4.90;99.90;;;;;;4976599;28;20621;-68
2022/01/13 10:02:55;;;;;;;0.10;0.10;;;4.90;99.90;;;;;;4983591;28;21198;-67
2022/01/13 10:05:24;;;;;;;0.10;0.10;;;4.90;99.90;;;;;;4983518;28;20660;-68
2022/01/13 10:07:52;;;;;;;0.03;0.03;;;5.00;99.90;;;;;;4977040;28;20669;-68
2022/01/13 10:10:22;;;;;;;0.10;0.10;;;5.00;99.90;;;;;;4985796;28;20643;-69
2022/01/13 10:13:04;;;;;;;0.10;0.10;;;5.00;99.90;;;;;;4982714;28;20625;-69
2022/01/13 10:18:37;;;;;;;0.10;0.10;;;5.10;99.90;;;;;;4977613;28;20628;-68
2022/01/13 10:21:06;;;;;;;0.10;0.10;;;5.10;99.90;;;;;;4978888;28;20608;-69
2022/01/13 10:23:32;;;;;;;0.10;0.10;;;5.10;99.90;;;;;;4986233;28;20659;-69
2022/01/13 10:26:09;;;;;;;0.10;0.10;;;5.10;99.90;;;;;;4986378;28;20719;-67
2022/01/13 10:28:37;;;;;;;0.20;0.20;;;5.20;99.90;;;;;;4982365;28;20757;-69
2022/01/13 10:31:04;;;;;;;0.10;0.10;;;5.20;99.90;;;;;;4980510;28;20722;-69
2022/01/13 10:33:33;;;;;;;0.13;0.13;;;5.20;99.90;;;;;;4982503;28;21300;-69
2022/01/13 10:36:09;;;;;;;0.10;0.10;;;5.20;99.90;;;;;;4974849;28;20620;-68
2022/01/13 10:38:52;;;;;;;0.10;0.10;;;5.30;99.90;;;;;;4986558;28;20995;-68
2022/01/13 10:41:35;;;;;;;0.10;0.10;;;5.30;99.90;;;;;;4978646;28;20624;-69
2022/01/13 10:44:14;;;;;;;0.10;0.10;;;5.30;99.90;;;;;;4984005;28;20662;-68
2022/01/13 10:46:58;;;;;;;0.13;0.13;;;5.30;99.90;;;;;;4982660;28;20643;-68
2022/01/13 10:49:36;;;;;;;0.10;0.10;;;5.40;99.90;;;;;;4975112;28;20676;-69
2022/01/13 10:52:24;;;;;;;0.10;0.10;;;5.40;99.90;;;;;;4984392;28;20619;-68
2022/01/13 10:54:54;;;;;;;0.10;0.10;;;5.40;99.90;;;;;;4980503;28;20760;-68
2022/01/13 10:57:25;;;;;;;0.10;0.10;;;5.40;99.90;;;;;;4977966;28;20698;-69
2022/01/13 10:59:56;;;;;;;0.10;0.10;;;5.40;99.90;;;;;;4980328;28;20625;-68
2022/01/13 11:02:26;;;;;;;0.10;0.10;;;5.40;99.90;;;;;;4982725;28;21062;-68
2022/01/13 11:04:55;;;;;;;0.10;0.10;;;5.40;99.90;;;;;;4987796;28;20644;-69
2022/01/13 11:07:27;;;;;;;0.10;0.10;;;5.40;99.90;;;;;;4974682;28;20644;-69
2022/01/13 11:09:56;;;;;;;0.10;0.10;;;5.50;99.90;;;;;;4979387;28;20667;-69
2022/01/13 11:12:32;;;;;;;0.10;0.10;;;5.50;99.90;;;;;;4981811;28;20702;-67
2022/01/13 11:15:04;;;;;;;0.10;0.10;;;5.60;99.90;;;;;;4986676;28;20705;-69
2022/01/13 11:17:33;;;;;;;0.20;0.20;;;5.70;99.90;;;;;;4982414;28;20746;-68
2022/01/13 11:20:00;;;;;;;0.10;0.10;;;5.80;99.90;;;;;;4985430;28;20642;-67
2022/01/13 11:22:29;;;;;;;0.10;0.10;;;5.90;99.90;;;;;;4981813;28;20684;-69
2022/01/13 11:24:57;;;;;;;0.10;0.10;;;6.00;99.90;;;;;;4985169;28;20660;-69
2022/01/13 11:27:25;;;;;;;0.10;0.10;;;6.10;99.90;;;;;;4986439;28;20601;-69
2022/01/13 11:29:54;;;;;;;0.10;0.10;;;6.20;99.90;;;;;;4979279;28;20665;-68
2022/01/13 11:32:24;;;;;;;0.10;0.10;;;6.30;99.90;;;;;;4980230;28;20624;-69
2022/01/13 11:34:52;;;;;;;0.10;0.10;;;6.40;99.90;;;;;;4980961;28;20657;-68
2022/01/13 11:37:19;;;;;;;0.20;0.20;;;6.50;99.90;;;;;;4976134;28;21416;-69
2022/01/13 11:39:46;;;;;;;0.10;0.10;;;6.50;99.90;;;;;;4984262;28;20713;-69
2022/01/13 11:42:15;;;;;;;0.10;0.10;;;6.50;99.90;;;;;;4981042;28;20675;-68
2022/01/13 11:44:43;;;;;;;0.10;0.10;;;6.60;99.90;;;;;;4978082;28;20664;-67
2022/01/13 11:47:18;;;;;;;0.20;0.20;;;6.60;99.90;;;;;;4985174;28;20627;-69
2022/01/13 11:49:57;;;;;;;0.10;0.10;;;6.60;99.90;;;;;;4981706;28;20714;-69
2022/01/13 11:52:40;;;;;;;0.10;0.10;;;;;;;;;;4982394;28;20648;-68
2022/01/13 11:55:21;;;;;;;0.00;0.00;;;;;;;;;;4977989;28;20623;-67
2022/01/13 11:57:49;;;;;;;0.10;0.10;;;;;;;;;;4983631;28;20629;-69
2022/01/13 12:00:22;;;;;;;0.10;0.10;;;;;;;;;;4981312;28;20593;-69
2022/01/13 12:02:49;;;;;;;0.10;0.10;;;;;;;;;;4977145;28;20633;-69
2022/01/13 12:05:20;;;;;;;0.10;0.10;;;6.70;99.90;;;;;;4983270;28;20633;-69
2022/01/13 12:07:48;;;;;;;0.10;0.10;;;6.80;99.90;;;;;;4981812;28;20653;-69
2022/01/13 12:10:48;;;;;;;0.10;0.10;;;6.80;99.90;;;;;;4982675;28;20667;-67
2022/01/13 12:13:36;;;;;;;0.10;0.10;;;6.70;99.90;;;;;;4981917;28;20750;-69
2022/01/13 12:16:05;;;;;;;0.10;0.10;;;6.70;99.90;;;;;;4981514;28;20717;-66
2022/01/13 12:18:57;;;;;;;0.10;0.10;;;6.70;99.90;;;;;;4985324;28;20686;-67
2022/01/13 12:21:29;;;;;;;0.10;0.10;;;6.70;99.90;;;;;;4975739;28;21007;-68
2022/01/13 12:23:56;;;;;;;0.10;0.10;;;6.70;99.90;;;;;;4980207;28;21044;-68
2022/01/13 12:26:46;;;;;;;0.10;0.10;;;6.70;99.90;;;;;;4986756;28;20601;-68
2022/01/13 12:29:15;;;;;;;0.10;0.10;;;6.70;99.90;;;;;;4984178;28;20659;-69
2022/01/13 12:31:50;;;;;;;0.10;0.10;;;6.80;99.90;;;;;;4984025;28;20670;-68
2022/01/13 12:34:39;;;;;;;0.10;0.10;;;6.80;99.90;;;;;;4978990;28;20668;-68
2022/01/13 12:37:29;;;;;;;0.10;0.10;;;6.80;99.90;;;;;;4961502;28;20663;-68
2022/01/13 12:40:09;;;;;;;0.10;0.10;;;6.90;99.90;;;;;;4982592;28;20615;-67
2022/01/13 12:42:39;;;;;;;0.10;0.10;;;6.90;99.90;;;;;;4973460;28;20633;-68
2022/01/13 12:47:54;;;;;;;0.10;0.10;;;6.80;99.90;;;;;;4984413;28;21194;-67
2022/01/13 12:50:28;;;;;;;0.10;0.10;;;6.90;99.90;;;;;;4983192;28;20667;-68
2022/01/13 12:53:07;;;;;;;0.00;0.00;;;6.90;99.90;;;;;;4981033;28;20619;-67
2022/01/13 12:55:34;;;;;;;0.10;0.10;;;6.80;99.90;;;;;;4979616;28;20636;-68
2022/01/13 12:58:01;;;;;;;0.10;0.10;;;6.90;99.90;;;;;;4978581;28;20670;-66
2022/01/13 13:00:29;;;;;;;0.10;0.10;;;6.90;99.90;;;;;;4975016;28;20621;-67
2022/01/13 13:03:05;;;;;;;0.10;0.10;;;6.90;99.90;;;;;;4978207;28;20637;-68
2022/01/13 13:05:43;;;;;;;0.10;0.10;;;6.90;99.90;;;;;;4984312;28;20978;-68
2022/01/13 13:08:16;;;;;;;0.10;0.10;;;7.00;99.90;;;;;;4976595;28;20727;-68
2022/01/13 13:10:46;;;;;;;0.10;0.10;;;7.00;99.90;;;;;;4974812;28;20652;-69
2022/01/13 13:13:14;;;;;;;0.20;0.20;;;;;;;;;;4980572;28;20650;-67
2022/01/13 13:15:42;;;;;;;0.10;0.10;;;;;;;;;;4984137;28;20631;-68
2022/01/13 13:18:10;;;;;;;0.10;0.10;;;;;;;;;;4985210;28;20688;-69
2022/01/13 13:20:39;;;;;;;0.10;0.10;;;;;;;;;;4981012;28;20612;-68
2022/01/13 13:23:10;;;;;;;0.10;0.10;;;;;;;;;;4983111;28;20701;-68
2022/01/13 13:25:40;;;;;;;0.10;0.10;;;;;;;;;;4983000;28;20985;-67
2022/01/13 13:28:18;;;;;;;0.10;0.10;;;;;;;;;;4982265;28;20894;-68
2022/01/13 13:30:45;;;;;;;0.10;0.10;;;;;;;;;;4974032;28;20657;-69
2022/01/13 13:33:13;;;;;;;0.10;0.10;;;;;;;;;;4981140;28;20667;-67
2022/01/13 13:35:40;;;;;;;0.10;0.10;;;;;;;;;;4984785;28;20628;-69